Terminal Aerodrome Forecast
Issued by NWS Wilmington, OH

Current Version | Previous Version | Text Only | Print | Product List | Glossary Off
Versions: 1 2 3 4 5 6 7 8 9 10 11 12 13 14 15 16 17 18 19 20 21 22 23 24 25 26 27

000
FTUS41 KILN 151700 RRA
TAFILN
TAF
KILN 151742Z 1518/1618 14010KT P6SM SCT022 BKN250
      TEMPO 1518/1522 BKN022
     FM160100 15010KT P6SM -RA SCT022 OVC060
     FM160600 17010KT P6SM VCSH SCT015 OVC035
     FM160900 19011KT 4SM BR VCSH BKN015 OVC025
     FM161100 20012KT 4SM -SHRA BR OVC012
      TEMPO 1611/1613 BKN007
     FM161500 22013G21KT 5SM -SHRA BR OVC015=

USA.gov is the U.S. government's official web portal to all federal, state and local government web resources and services.